createdAt,value
2023-03-04T00:02:58.771Z,11.10
2023-03-04T00:07:22.978Z,11.40
2023-03-04T00:11:46.764Z,10.80
2023-03-04T00:16:10.956Z,12.60
2023-03-04T00:20:36.077Z,11.80
2023-03-04T00:24:59.976Z,14.30
2023-03-04T00:29:23.823Z,11.50
2023-03-04T00:33:47.713Z,11.60
2023-03-04T00:38:32.425Z,12.60
2023-03-04T00:42:49.673Z,12.10
2023-03-04T00:47:13.570Z,12.80
2023-03-04T00:51:37.867Z,10.70
2023-03-04T00:56:01.730Z,11.70
2023-03-04T01:00:25.634Z,12.40
2023-03-04T01:04:50.306Z,11.10
2023-03-04T01:09:15.134Z,10.50
2023-03-04T01:13:39.140Z,12.30
2023-03-04T01:18:03.822Z,12.10
2023-03-04T01:22:20.911Z,10.40
2023-03-04T01:26:45.361Z,11.50
2023-03-04T01:31:09.567Z,11.20
2023-03-04T01:35:33.626Z,11.60
2023-03-04T01:39:57.594Z,12.60
2023-03-04T01:44:24.364Z,11.30
2023-03-04T01:52:51.952Z,12.20
2023-03-04T01:57:15.881Z,11.30
2023-03-04T02:01:40.086Z,11.70
2023-03-04T02:06:04.078Z,12.70
2023-03-04T02:10:27.878Z,10.80
2023-03-04T02:14:51.861Z,11.60
2023-03-04T02:19:18.615Z,12.20
2023-03-04T02:23:48.563Z,18.40
2023-03-04T02:28:05.070Z,12.90
2023-03-04T02:32:28.938Z,14.40
2023-03-04T02:36:53.006Z,13.20
2023-03-04T02:41:16.779Z,11.90
2023-03-04T02:45:40.721Z,13.80
2023-03-04T02:50:04.615Z,12.90
2023-03-04T02:54:29.542Z,12.30
2023-03-04T02:58:48.678Z,15.60
2023-03-04T03:03:12.645Z,13.20
2023-03-04T03:07:29.104Z,14.90
2023-03-04T03:11:53.075Z,13.20
2023-03-04T03:16:17.116Z,12.60
2023-03-04T03:20:41.110Z,14.00
2023-03-04T03:25:04.926Z,13.60
2023-03-04T03:29:28.989Z,12.90
2023-03-04T03:33:53.096Z,13.20
2023-03-04T03:38:16.707Z,12.40
2023-03-04T03:42:40.593Z,12.70
2023-03-04T03:47:04.763Z,12.70
2023-03-04T03:51:28.638Z,12.10
2023-03-04T03:55:52.580Z,12.10
2023-03-04T04:00:16.609Z,12.40
2023-03-04T04:04:41.486Z,11.60
2023-03-04T04:09:05.381Z,13.20
2023-03-04T04:13:29.389Z,13.00
2023-03-04T04:17:53.262Z,11.50
2023-03-04T04:22:17.251Z,14.00
2023-03-04T04:26:41.444Z,13.50
2023-03-04T04:31:05.389Z,13.70
2023-03-04T04:35:29.261Z,12.40
2023-03-04T04:39:44.464Z,14.20
2023-03-04T04:44:08.336Z,12.50
2023-03-04T04:48:32.961Z,12.70
2023-03-04T04:52:56.340Z,12.50
2023-03-04T04:57:20.740Z,14.50
2023-03-04T05:01:44.770Z,12.30
2023-03-04T05:06:08.843Z,13.70
2023-03-04T05:10:32.741Z,13.20
2023-03-04T05:14:56.739Z,11.00
2023-03-04T05:19:20.779Z,12.70
2023-03-04T05:23:44.730Z,12.40
2023-03-04T05:28:07.223Z,12.30
2023-03-04T05:32:31.266Z,13.80
2023-03-04T05:36:56.119Z,12.80
2023-03-04T05:41:20.086Z,12.60
2023-03-04T05:45:44.249Z,12.50
2023-03-04T05:50:08.231Z,14.80
2023-03-04T05:54:32.118Z,15.00
2023-03-04T05:58:48.551Z,14.30
2023-03-04T06:07:16.019Z,11.60
2023-03-04T06:11:40.806Z,13.10
2023-03-04T06:16:05.866Z,14.30
2023-03-04T06:20:31.098Z,12.90
2023-03-04T06:24:54.951Z,12.20
2023-03-04T06:29:19.830Z,14.40
2023-03-04T06:33:44.103Z,14.20
2023-03-04T06:38:07.992Z,15.10
2023-03-04T06:42:31.968Z,14.90
2023-03-04T06:47:04.275Z,16.60
2023-03-04T06:51:28.174Z,17.10
2023-03-04T06:56:11.680Z,16.90
2023-03-04T07:00:35.528Z,20.80
2023-03-04T07:04:59.088Z,19.60
2023-03-04T07:09:23.057Z,42.80
2023-03-04T07:13:46.923Z,40.10
2023-03-04T07:18:10.803Z,40.20
2023-03-04T07:22:34.648Z,25.60
2023-03-04T07:26:58.530Z,22.40
2023-03-04T07:31:14.795Z,19.50
2023-03-04T07:35:38.577Z,20.20
2023-03-04T07:40:02.586Z,24.60
2023-03-04T07:44:26.569Z,18.80
2023-03-04T07:49:10.287Z,17.80
2023-03-04T07:53:34.167Z,18.40
2023-03-04T07:57:58.138Z,16.10
2023-03-04T08:02:22.054Z,15.90
2023-03-04T08:06:46.115Z,18.00
2023-03-04T08:11:10.253Z,20.10
2023-03-04T08:15:34.137Z,18.50
2023-03-04T08:19:58.179Z,20.90
2023-03-04T08:24:20.625Z,17.60
2023-03-04T08:28:44.636Z,17.70
2023-03-04T08:33:08.707Z,16.80
2023-03-04T08:37:32.602Z,19.20
2023-03-04T08:41:56.640Z,14.70
2023-03-04T08:46:20.654Z,15.60
2023-03-04T08:50:44.712Z,15.60
2023-03-04T08:55:08.581Z,14.10
2023-03-04T08:59:32.529Z,15.80
2023-03-04T09:03:56.582Z,14.90
2023-03-04T09:08:20.737Z,15.50
2023-03-04T09:12:44.974Z,15.30
2023-03-04T09:17:11.350Z,14.70
2023-03-04T09:21:35.461Z,15.40
2023-03-04T09:25:59.429Z,14.90
2023-03-04T09:30:23.320Z,20.60
2023-03-04T09:34:47.576Z,17.70
2023-03-04T09:39:11.675Z,17.30
2023-03-04T09:43:35.603Z,17.50
2023-03-04T09:48:00.207Z,16.90
2023-03-04T09:52:36.007Z,17.40
2023-03-04T09:56:59.896Z,16.60
2023-03-04T10:01:26.557Z,16.00
2023-03-04T10:06:10.344Z,15.90
2023-03-04T10:10:55.813Z,14.90
2023-03-04T10:15:25.482Z,15.00
2023-03-04T10:20:07.742Z,15.20
2023-03-04T10:24:31.788Z,14.40
2023-03-04T10:28:58.309Z,14.70
2023-03-04T10:33:22.198Z,14.70
2023-03-04T10:38:01.374Z,14.00
2023-03-04T10:42:25.569Z,11.80
2023-03-04T10:46:49.854Z,13.60
2023-03-04T10:51:14.854Z,14.10
2023-03-04T10:55:41.837Z,12.70
2023-03-04T11:00:03.886Z,11.50
2023-03-04T11:04:20.475Z,13.00
2023-03-04T11:08:47.226Z,13.00
2023-03-04T11:13:11.280Z,11.40
2023-03-04T11:17:37.952Z,12.50
2023-03-04T11:22:04.649Z,15.20
2023-03-04T11:26:28.668Z,13.30
2023-03-04T11:31:07.779Z,12.80
2023-03-04T11:35:29.406Z,15.60
2023-03-04T11:39:52.553Z,17.00
2023-03-04T11:44:28.511Z,14.40
2023-03-04T11:49:04.340Z,12.10
2023-03-04T11:53:43.140Z,10.80
2023-03-04T11:58:05.248Z,11.00
2023-03-04T12:02:29.233Z,12.20
2023-03-04T12:06:53.294Z,10.80
2023-03-04T12:11:24.315Z,9.40
2023-03-04T12:15:48.243Z,11.00
2023-03-04T12:20:12.344Z,24.30
2023-03-04T12:24:48.084Z,31.60
2023-03-04T12:29:36.361Z,84.10
2023-03-04T12:34:18.374Z,12.10
2023-03-04T12:38:42.221Z,8.00
2023-03-04T12:42:59.865Z,5.50
2023-03-04T12:47:22.295Z,10.50
2023-03-04T12:51:58.378Z,5.70
2023-03-04T12:56:22.976Z,3.00
2023-03-04T13:00:37.043Z,3.10
2023-03-04T13:05:19.269Z,1.50
2023-03-04T13:10:08.890Z,1.70
2023-03-04T13:14:37.534Z,2.00
2023-03-04T13:19:10.598Z,1.40
2023-03-04T13:23:50.412Z,2.00
2023-03-04T13:28:28.328Z,1.50
2023-03-04T13:33:07.284Z,1.40
2023-03-04T13:37:29.163Z,1.90
2023-03-04T13:42:11.328Z,1.70
2023-03-04T13:46:30.811Z,2.50
2023-03-04T13:50:56.226Z,1.70
2023-03-04T13:55:20.062Z,1.70
2023-03-04T13:59:44.254Z,2.20
2023-03-04T14:04:16.144Z,2.30
2023-03-04T14:08:38.721Z,2.10
2023-03-04T14:13:05.571Z,2.20
2023-03-04T14:17:50.257Z,2.40
2023-03-04T14:22:18.088Z,2.30
2023-03-04T14:26:44.704Z,3.70
2023-03-04T14:31:09.678Z,2.80
2023-03-04T14:35:39.721Z,2.50
2023-03-04T14:40:03.788Z,4.90
2023-03-04T14:44:38.791Z,3.10
2023-03-04T14:49:02.624Z,2.90
2023-03-04T14:53:45.620Z,3.20
2023-03-04T14:58:21.460Z,3.20
2023-03-04T15:02:43.548Z,4.20
2023-03-04T15:07:17.461Z,4.00
2023-03-04T15:11:43.277Z,4.30
2023-03-04T15:16:13.328Z,5.70
2023-03-04T15:20:44.284Z,5.50
2023-03-04T15:25:08.218Z,5.70
2023-03-04T15:29:34.980Z,5.60
2023-03-04T15:33:59.998Z,5.60
2023-03-04T15:38:26.946Z,5.20
2023-03-04T15:42:50.956Z,5.90
2023-03-04T15:47:14.589Z,8.50
2023-03-04T15:51:38.722Z,8.10
2023-03-04T15:56:02.637Z,8.50
2023-03-04T16:00:28.535Z,8.70
2023-03-04T16:04:53.481Z,12.90
2023-03-04T16:09:18.348Z,8.50
2023-03-04T16:13:42.301Z,8.50
2023-03-04T16:18:06.228Z,8.20
2023-03-04T16:22:21.903Z,9.50
2023-03-04T16:26:45.848Z,10.00
2023-03-04T16:31:09.880Z,10.30
2023-03-04T16:35:29.974Z,9.00
2023-03-04T16:39:56.736Z,10.20
2023-03-04T16:44:20.643Z,9.40
2023-03-04T16:48:44.310Z,11.00
2023-03-04T16:53:08.267Z,11.20
2023-03-04T16:57:35.381Z,11.30
2023-03-04T17:01:59.305Z,11.30
2023-03-04T17:06:22.124Z,12.00
2023-03-04T17:10:46.167Z,12.00
2023-03-04T17:15:10.215Z,11.90
2023-03-04T17:19:34.128Z,12.30
2023-03-04T17:23:59.236Z,12.10
2023-03-04T17:28:23.165Z,13.00
2023-03-04T17:32:47.035Z,15.00
2023-03-04T17:37:14.047Z,13.70
2023-03-04T17:41:38.290Z,15.70
2023-03-04T17:46:03.103Z,16.80
2023-03-04T17:50:26.981Z,16.70
2023-03-04T17:54:50.866Z,16.40
2023-03-04T17:59:15.618Z,15.60
2023-03-04T18:03:39.770Z,17.20
2023-03-04T18:08:04.050Z,16.90
2023-03-04T18:12:28.034Z,20.70
2023-03-04T18:16:52.053Z,15.70
2023-03-04T18:21:15.994Z,16.00
2023-03-04T18:25:42.274Z,16.30
2023-03-04T18:30:06.247Z,16.00
2023-03-04T18:34:30.243Z,23.20
2023-03-04T18:38:54.232Z,15.90
2023-03-04T18:43:18.348Z,15.40
2023-03-04T18:47:42.426Z,22.00
2023-03-04T18:52:06.593Z,52.60
2023-03-04T18:56:38.724Z,20.90
2023-03-04T19:01:03.304Z,36.30
2023-03-04T19:05:28.060Z,15.70
2023-03-04T19:09:53.155Z,16.70
2023-03-04T19:14:17.162Z,16.40
2023-03-04T19:18:41.063Z,17.20
2023-03-04T19:23:05.919Z,15.60
2023-03-04T19:27:31.928Z,15.60
2023-03-04T19:31:56.193Z,15.00
2023-03-04T19:36:20.316Z,14.80
2023-03-04T19:40:44.001Z,14.10
2023-03-04T19:45:08.229Z,20.50
2023-03-04T19:49:32.165Z,15.80
2023-03-04T19:53:56.212Z,15.90
2023-03-04T19:58:20.142Z,13.20
2023-03-04T20:02:44.527Z,12.10
2023-03-04T20:07:08.543Z,11.50
2023-03-04T20:11:32.563Z,10.30
2023-03-04T20:15:57.345Z,8.90
2023-03-04T20:20:21.325Z,9.20
2023-03-04T20:24:45.286Z,9.50
2023-03-04T20:29:09.241Z,9.60
2023-03-04T20:33:31.594Z,8.60
2023-03-04T20:37:55.537Z,8.70
2023-03-04T20:42:13.681Z,9.50
2023-03-04T20:46:30.411Z,9.70
2023-03-04T20:50:54.348Z,10.00
2023-03-04T20:55:18.362Z,8.80
2023-03-04T20:59:42.202Z,9.00
2023-03-04T21:03:59.012Z,10.00
2023-03-04T21:08:24.481Z,10.10
2023-03-04T21:12:48.367Z,11.30
2023-03-04T21:17:15.380Z,9.60
2023-03-04T21:21:39.381Z,10.30
2023-03-04T21:26:03.415Z,8.40
2023-03-04T21:30:25.850Z,7.90
2023-03-04T21:34:49.713Z,7.80
2023-03-04T21:39:13.702Z,7.50
2023-03-04T21:43:34.667Z,8.50
2023-03-04T21:47:58.672Z,7.30
2023-03-04T21:52:13.087Z,6.30
2023-03-04T21:56:37.080Z,6.70
2023-03-04T22:01:01.183Z,7.60
2023-03-04T22:05:25.196Z,6.90
2023-03-04T22:09:49.001Z,11.30
2023-03-04T22:14:32.554Z,32.30
2023-03-04T22:18:56.599Z,15.80
2023-03-04T22:23:20.469Z,7.70
2023-03-04T22:27:44.404Z,7.60
2023-03-04T22:32:17.477Z,6.90
2023-03-04T22:36:41.351Z,7.40
2023-03-04T22:40:58.682Z,7.70
2023-03-04T22:45:22.498Z,9.90
2023-03-04T22:49:47.184Z,12.00
2023-03-04T22:54:11.207Z,8.60
2023-03-04T22:58:26.814Z,6.70
2023-03-04T23:02:50.659Z,4.60
2023-03-04T23:07:12.423Z,4.90
2023-03-04T23:11:36.305Z,6.10
2023-03-04T23:16:00.200Z,6.40
2023-03-04T23:20:25.770Z,8.90
2023-03-04T23:24:49.622Z,11.40
2023-03-04T23:29:13.566Z,13.00
2023-03-04T23:33:37.516Z,14.00
2023-03-04T23:38:01.439Z,18.70
2023-03-04T23:42:24.829Z,13.00
2023-03-04T23:46:48.709Z,11.30
2023-03-04T23:51:12.996Z,9.90
2023-03-04T23:55:36.942Z,11.70
